createdAt,value
2019-06-10T00:02:10.937Z,4.80
2019-06-10T00:04:38.826Z,3.80
2019-06-10T00:07:07.356Z,3.80
2019-06-10T00:09:35.380Z,3.10
2019-06-10T00:12:04.735Z,2.87
2019-06-10T00:14:32.878Z,3.17
2019-06-10T00:17:02.012Z,2.60
2019-06-10T00:19:31.698Z,4.07
2019-06-10T00:22:01.980Z,3.47
2019-06-10T00:24:31.500Z,3.20
2019-06-10T00:27:00.287Z,4.60
2019-06-10T00:29:31.115Z,3.70
2019-06-10T00:32:00.993Z,2.63
2019-06-10T00:34:31.554Z,2.77
2019-06-10T00:37:02.663Z,2.80
2019-06-10T00:39:31.259Z,2.80
2019-06-10T00:42:02.517Z,2.57
2019-06-10T00:44:31.107Z,2.47
2019-06-10T00:47:00.100Z,3.20
2019-06-10T00:49:28.506Z,4.27
2019-06-10T00:51:56.445Z,2.80
2019-06-10T00:54:24.163Z,3.53
2019-06-10T00:56:52.075Z,4.70
2019-06-10T00:59:22.128Z,2.90
2019-06-10T01:01:50.940Z,3.77
2019-06-10T01:04:21.418Z,2.97
2019-06-10T01:06:51.391Z,2.50
2019-06-10T01:09:21.639Z,2.53
2019-06-10T01:11:51.673Z,4.70
2019-06-10T01:14:21.355Z,2.50
2019-06-10T01:16:50.620Z,4.70
2019-06-10T01:19:18.695Z,3.50
2019-06-10T01:21:46.366Z,3.80
2019-06-10T01:24:14.843Z,2.97
2019-06-10T01:26:42.752Z,2.00
2019-06-10T01:29:13.648Z,2.37
2019-06-10T01:31:42.014Z,2.07
2019-06-10T01:34:12.433Z,2.50
2019-06-10T01:36:40.738Z,2.43
2019-06-10T01:39:09.486Z,2.20
2019-06-10T01:41:40.799Z,2.43
2019-06-10T01:44:08.458Z,2.43
2019-06-10T01:46:36.514Z,2.67
2019-06-10T01:49:04.214Z,2.73
2019-06-10T01:51:33.696Z,2.53
2019-06-10T01:54:01.446Z,1.97
2019-06-10T01:56:31.337Z,2.40
2019-06-10T01:59:01.348Z,3.03
2019-06-10T02:01:37.692Z,2.10
2019-06-10T02:04:05.448Z,1.90
2019-06-10T02:06:33.165Z,2.37
2019-06-10T02:09:06.931Z,3.00
2019-06-10T02:11:35.832Z,2.37
2019-06-10T02:14:04.438Z,3.07
2019-06-10T02:16:32.648Z,4.00
2019-06-10T02:19:03.979Z,3.50
2019-06-10T02:21:31.152Z,1.80
2019-06-10T02:24:01.001Z,2.70
2019-06-10T02:26:30.898Z,1.93
2019-06-10T02:29:00.561Z,3.23
2019-06-10T02:31:35.512Z,2.53
2019-06-10T02:33:57.829Z,2.00
2019-06-10T02:36:31.248Z,1.87
2019-06-10T02:38:55.491Z,3.10
2019-06-10T02:41:31.649Z,2.60
2019-06-10T02:43:53.534Z,2.90
2019-06-10T02:46:28.527Z,1.93
2019-06-10T02:48:54.373Z,2.00
2019-06-10T02:51:28.661Z,3.10
2019-06-10T02:53:53.826Z,1.90
2019-06-10T02:56:27.534Z,1.87
2019-06-10T02:58:53.440Z,2.10
2019-06-10T03:01:23.288Z,2.47
2019-06-10T03:03:53.928Z,2.63
2019-06-10T03:06:25.231Z,2.37
2019-06-10T03:08:50.071Z,3.90
2019-06-10T03:11:19.269Z,2.27
2019-06-10T03:13:47.710Z,2.13
2019-06-10T03:16:23.071Z,4.00
2019-06-10T03:18:52.504Z,2.20
2019-06-10T03:21:23.067Z,4.13
2019-06-10T03:23:50.450Z,2.63
2019-06-10T03:26:19.248Z,2.20
2019-06-10T03:28:47.319Z,2.23
2019-06-10T03:31:15.840Z,1.90
2019-06-10T03:33:47.730Z,2.27
2019-06-10T03:36:14.424Z,3.80
2019-06-10T03:38:43.299Z,1.70
2019-06-10T03:41:12.467Z,1.80
2019-06-10T03:43:42.686Z,2.90
2019-06-10T03:46:10.178Z,1.77
2019-06-10T03:48:37.883Z,1.97
2019-06-10T03:51:05.765Z,2.43
2019-06-10T03:53:33.883Z,2.43
2019-06-10T03:56:02.245Z,2.23
2019-06-10T03:58:32.612Z,3.10
2019-06-10T04:01:02.799Z,2.43
2019-06-10T04:03:29.887Z,1.67
2019-06-10T04:05:57.606Z,2.70
2019-06-10T04:08:26.546Z,1.87
2019-06-10T04:10:54.622Z,2.97
2019-06-10T04:13:25.851Z,1.90
2019-06-10T04:15:56.544Z,2.00
2019-06-10T04:18:27.860Z,1.83
2019-06-10T04:20:55.486Z,1.87
2019-06-10T04:23:25.419Z,1.93
2019-06-10T04:25:53.093Z,3.20
2019-06-10T04:28:24.071Z,2.37
2019-06-10T04:30:53.584Z,1.73
2019-06-10T04:33:23.284Z,2.07
2019-06-10T04:35:51.949Z,2.27
2019-06-10T04:38:23.360Z,3.67
2019-06-10T04:40:52.516Z,1.70
2019-06-10T04:43:22.981Z,2.93
2019-06-10T04:45:50.037Z,2.50
2019-06-10T04:48:18.519Z,2.40
2019-06-10T04:50:46.637Z,1.93
2019-06-10T04:53:14.401Z,2.07
2019-06-10T04:55:43.135Z,1.60
2019-06-10T04:58:12.950Z,2.30
2019-06-10T05:00:42.751Z,2.20
2019-06-10T05:03:12.133Z,3.07
2019-06-10T05:05:39.944Z,1.90
2019-06-10T05:08:07.862Z,1.90
2019-06-10T05:10:35.881Z,2.50
2019-06-10T05:13:03.568Z,2.10
2019-06-10T05:15:34.625Z,2.00
2019-06-10T05:18:03.311Z,2.60
2019-06-10T05:20:48.943Z,2.30
2019-06-10T05:23:02.250Z,2.10
2019-06-10T05:25:32.649Z,3.30
2019-06-10T05:28:00.211Z,2.40
2019-06-10T05:30:31.040Z,2.23
2019-06-10T05:32:59.627Z,3.13
2019-06-10T05:35:28.473Z,1.73
2019-06-10T05:37:57.060Z,2.70
2019-06-10T05:40:26.229Z,2.70
2019-06-10T05:42:54.335Z,2.60
2019-06-10T05:45:24.649Z,2.10
2019-06-10T05:47:53.078Z,2.13
2019-06-10T05:50:23.413Z,2.27
2019-06-10T05:52:52.066Z,2.60
2019-06-10T05:55:22.475Z,2.00
2019-06-10T05:57:49.753Z,5.40
2019-06-10T06:00:18.870Z,2.90
2019-06-10T06:02:46.792Z,2.60
2019-06-10T06:05:14.951Z,2.17
2019-06-10T06:07:42.839Z,2.43
2019-06-10T06:10:13.022Z,2.23
2019-06-10T06:12:42.450Z,2.80
2019-06-10T06:15:12.893Z,2.10
2019-06-10T06:17:42.976Z,2.27
2019-06-10T06:20:13.120Z,2.90
2019-06-10T06:22:42.673Z,1.90
2019-06-10T06:25:15.196Z,2.47
2019-06-10T06:27:42.243Z,2.80
2019-06-10T06:30:18.470Z,1.70
2019-06-10T06:32:43.536Z,2.00
2019-06-10T06:35:12.640Z,1.90
2019-06-10T06:37:42.869Z,2.50
2019-06-10T06:40:13.083Z,2.37
2019-06-10T06:42:43.106Z,3.00
2019-06-10T06:45:12.159Z,1.90
2019-06-10T06:47:39.903Z,1.90
2019-06-10T06:50:12.897Z,2.10
2019-06-10T06:53:12.514Z,1.90
2019-06-10T06:55:10.062Z,2.67
2019-06-10T06:57:38.980Z,2.70
2019-06-10T07:00:34.217Z,2.80
2019-06-10T07:02:38.820Z,1.83
2019-06-10T07:05:07.957Z,2.73
2019-06-10T07:07:38.561Z,2.10
2019-06-10T07:10:07.639Z,2.40
2019-06-10T07:12:36.731Z,2.40
2019-06-10T07:15:07.385Z,1.83
2019-06-10T07:17:37.379Z,2.57
2019-06-10T07:20:06.932Z,2.30
2019-06-10T07:22:36.979Z,2.07
2019-06-10T07:25:07.802Z,2.80
2019-06-10T07:27:37.542Z,3.10
2019-06-10T07:30:11.773Z,2.93
2019-06-10T07:32:38.504Z,2.53
2019-06-10T07:35:05.660Z,5.77
2019-06-10T07:37:34.962Z,2.43
2019-06-10T07:40:04.997Z,3.60
2019-06-10T07:42:33.302Z,1.80
2019-06-10T07:45:02.705Z,3.47
2019-06-10T07:47:32.657Z,2.20
2019-06-10T07:50:02.878Z,2.57
2019-06-10T07:52:30.165Z,2.70
2019-06-10T07:54:59.545Z,1.90
2019-06-10T07:57:28.427Z,1.80
2019-06-10T07:59:56.120Z,2.50
2019-06-10T08:02:24.535Z,1.87
2019-06-10T08:04:55.175Z,2.23
2019-06-10T08:07:23.486Z,2.10
2019-06-10T08:09:53.254Z,1.73
2019-06-10T08:12:23.257Z,2.37
2019-06-10T08:14:53.225Z,3.87
2019-06-10T08:17:22.490Z,2.80
2019-06-10T08:19:53.494Z,2.40
2019-06-10T08:22:31.262Z,2.70
2019-06-10T08:24:52.302Z,1.63
2019-06-10T08:27:22.717Z,5.00
2019-06-10T08:30:07.782Z,2.33
2019-06-10T08:32:20.920Z,2.00
2019-06-10T08:34:49.235Z,3.27
2019-06-10T08:37:18.829Z,2.60
2019-06-10T08:39:47.687Z,2.10
2019-06-10T08:42:15.792Z,2.20
2019-06-10T08:44:47.266Z,1.60
2019-06-10T08:47:14.791Z,2.40
2019-06-10T08:49:46.201Z,2.70
2019-06-10T08:52:13.798Z,2.20
2019-06-10T08:54:45.703Z,2.90
2019-06-10T08:57:14.862Z,1.80
2019-06-10T08:59:46.064Z,2.20
2019-06-10T09:02:13.770Z,3.33
2019-06-10T09:04:45.961Z,2.00
2019-06-10T09:07:14.448Z,1.70
2019-06-10T09:09:48.635Z,2.13
2019-06-10T09:12:28.747Z,2.40
2019-06-10T09:14:48.184Z,2.13
2019-06-10T09:17:16.148Z,3.40
2019-06-10T09:19:46.443Z,2.13
2019-06-10T09:22:33.774Z,4.13
2019-06-10T09:25:03.063Z,2.60
2019-06-10T09:27:32.755Z,2.43
2019-06-10T09:30:03.014Z,2.63
2019-06-10T09:32:32.570Z,2.80
2019-06-10T09:35:03.216Z,2.73
2019-06-10T09:37:32.038Z,2.20
2019-06-10T09:40:03.367Z,2.63
2019-06-10T09:42:33.204Z,2.20
2019-06-10T09:45:02.652Z,2.57
2019-06-10T09:47:34.015Z,3.03
2019-06-10T09:50:03.257Z,3.70
2019-06-10T09:52:32.859Z,2.53
2019-06-10T09:55:02.778Z,2.60
2019-06-10T09:57:32.145Z,2.30
2019-06-10T10:00:03.090Z,2.60
2019-06-10T10:02:29.772Z,2.30
2019-06-10T10:04:58.570Z,3.20
2019-06-10T10:07:32.322Z,2.60
2019-06-10T10:10:04.497Z,2.40
2019-06-10T10:12:32.699Z,2.50
2019-06-10T10:15:22.241Z,3.10
2019-06-10T10:17:33.414Z,2.67
2019-06-10T10:20:03.201Z,2.47
2019-06-10T10:22:33.351Z,2.47
2019-06-10T10:25:04.201Z,2.33
2019-06-10T10:27:32.439Z,4.40
2019-06-10T10:30:03.149Z,2.60
2019-06-10T10:32:33.442Z,2.40
2019-06-10T10:35:03.063Z,2.13
2019-06-10T10:37:33.833Z,3.30
2019-06-10T10:40:03.907Z,2.40
2019-06-10T10:42:45.533Z,2.13
2019-06-10T10:45:06.074Z,2.87
2019-06-10T10:47:34.317Z,2.23
2019-06-10T10:50:06.150Z,2.70
2019-06-10T10:52:34.015Z,3.07
2019-06-10T10:55:06.541Z,2.30
2019-06-10T10:57:33.226Z,2.30
2019-06-10T11:00:03.149Z,4.30
2019-06-10T11:02:32.228Z,2.60
2019-06-10T11:05:00.139Z,2.37
2019-06-10T11:07:28.099Z,2.30
2019-06-10T11:09:56.873Z,2.43
2019-06-10T11:12:25.840Z,2.43
2019-06-10T11:14:55.353Z,2.20
2019-06-10T11:17:23.942Z,2.03
2019-06-10T11:19:53.702Z,1.63
2019-06-10T11:22:23.151Z,1.93
2019-06-10T11:24:54.427Z,3.77
2019-06-10T11:27:22.833Z,2.47
2019-06-10T11:29:53.149Z,2.50
2019-06-10T11:32:20.467Z,2.50
2019-06-10T11:34:48.211Z,2.43
2019-06-10T11:37:16.037Z,4.87
2019-06-10T11:39:44.063Z,3.17
2019-06-10T11:42:13.749Z,2.63
2019-06-10T11:44:43.258Z,2.90
2019-06-10T11:47:13.248Z,2.60
2019-06-10T11:49:43.452Z,2.43
2019-06-10T11:52:12.618Z,2.43
2019-06-10T11:54:53.787Z,2.30
2019-06-10T11:57:12.511Z,3.27
2019-06-10T11:59:40.079Z,3.00
2019-06-10T12:02:07.809Z,3.03
2019-06-10T12:04:35.921Z,2.70
2019-06-10T12:07:04.454Z,3.00
2019-06-10T12:09:33.416Z,3.47
2019-06-10T12:12:02.208Z,2.57
2019-06-10T12:14:32.831Z,3.30
2019-06-10T12:17:30.922Z,1.90
2019-06-10T12:19:34.081Z,2.53
2019-06-10T12:22:07.200Z,1.77
2019-06-10T12:24:33.340Z,2.50
2019-06-10T12:27:04.816Z,4.27
2019-06-10T12:29:31.822Z,2.43
2019-06-10T12:32:02.819Z,2.90
2019-06-10T12:34:29.267Z,3.40
2019-06-10T12:37:07.467Z,5.53
2019-06-10T12:39:28.806Z,3.30
2019-06-10T12:41:58.312Z,2.87
2019-06-10T12:44:27.941Z,3.63
2019-06-10T12:46:57.989Z,3.20
2019-06-10T12:49:25.595Z,3.43
2019-06-10T12:51:54.765Z,5.40
2019-06-10T12:54:23.085Z,4.00
2019-06-10T12:56:56.505Z,3.00
2019-06-10T12:59:24.789Z,2.80
2019-06-10T13:01:53.190Z,2.73
2019-06-10T13:04:21.854Z,3.10
2019-06-10T13:06:51.980Z,2.30
2019-06-10T13:09:19.510Z,2.80
2019-06-10T13:11:47.211Z,3.60
2019-06-10T13:14:18.175Z,3.00
2019-06-10T13:16:44.672Z,3.20
2019-06-10T13:19:13.294Z,2.77
2019-06-10T13:21:42.638Z,2.70
2019-06-10T13:24:12.897Z,2.13
2019-06-10T13:26:43.001Z,2.60
2019-06-10T13:29:11.303Z,3.40
2019-06-10T13:31:39.829Z,3.03
2019-06-10T13:34:11.299Z,2.70
2019-06-10T13:36:37.499Z,3.13
2019-06-10T13:39:10.143Z,3.37
2019-06-10T13:41:37.069Z,3.33
2019-06-10T13:44:06.313Z,2.83
2019-06-10T13:46:34.208Z,3.93
2019-06-10T13:49:04.479Z,3.10
2019-06-10T13:51:32.341Z,2.30
2019-06-10T13:54:03.801Z,2.47
2019-06-10T13:56:45.762Z,1.97
2019-06-10T13:59:01.605Z,1.93
2019-06-10T14:01:34.657Z,2.60
2019-06-10T14:04:02.979Z,2.10
2019-06-10T14:06:45.474Z,2.30
2019-06-10T14:09:00.885Z,2.00
2019-06-10T14:11:30.205Z,2.10
2019-06-10T14:13:58.380Z,2.07
2019-06-10T14:16:26.109Z,1.90
2019-06-10T14:18:54.281Z,2.03
2019-06-10T14:21:23.425Z,2.13
2019-06-10T14:23:51.470Z,2.53
2019-06-10T14:26:34.457Z,3.00
2019-06-10T14:28:48.991Z,2.37
2019-06-10T14:31:38.663Z,2.00
2019-06-10T14:33:47.420Z,3.00
2019-06-10T14:36:16.819Z,2.50
2019-06-10T14:38:45.080Z,1.97
2019-06-10T14:41:14.231Z,2.10
2019-06-10T14:43:43.789Z,2.23
2019-06-10T14:46:14.373Z,30.60
2019-06-10T14:48:42.740Z,10.47
2019-06-10T14:51:14.906Z,2.73
2019-06-10T14:53:42.528Z,2.37
2019-06-10T14:56:14.857Z,2.13
2019-06-10T14:58:42.448Z,2.97
2019-06-10T15:01:17.769Z,2.83
2019-06-10T15:03:40.158Z,2.73
2019-06-10T15:06:09.172Z,2.30
2019-06-10T15:08:37.117Z,2.53
2019-06-10T15:11:07.540Z,2.00
2019-06-10T15:13:35.688Z,2.77
2019-06-10T15:16:04.367Z,6.70
2019-06-10T15:18:33.123Z,2.67
2019-06-10T15:21:03.016Z,2.40
2019-06-10T15:23:32.525Z,2.77
2019-06-10T15:26:02.596Z,2.20
2019-06-10T15:28:30.654Z,3.83
2019-06-10T15:30:58.662Z,3.20
2019-06-10T15:33:26.592Z,4.70
2019-06-10T15:35:54.362Z,2.27
2019-06-10T15:38:23.122Z,2.60
2019-06-10T15:40:53.368Z,3.10
2019-06-10T15:43:23.309Z,3.40
2019-06-10T15:45:52.857Z,3.43
2019-06-10T15:48:24.986Z,2.63
2019-06-10T15:50:52.684Z,2.43
2019-06-10T15:53:25.428Z,2.40
2019-06-10T15:56:16.752Z,2.67
2019-06-10T15:58:25.525Z,1.60
2019-06-10T16:00:54.382Z,1.70
2019-06-10T16:03:25.689Z,1.40
2019-06-10T16:05:53.249Z,1.67
2019-06-10T16:08:22.327Z,1.73
2019-06-10T16:10:52.519Z,2.43
2019-06-10T16:13:21.497Z,1.57
2019-06-10T16:15:52.932Z,2.30
2019-06-10T16:18:25.172Z,2.50
2019-06-10T16:20:52.770Z,1.90
2019-06-10T16:23:23.022Z,1.93
2019-06-10T16:25:53.156Z,3.97
2019-06-10T16:28:23.416Z,2.33
2019-06-10T16:30:53.653Z,1.90
2019-06-10T16:33:26.080Z,7.93
2019-06-10T16:35:51.807Z,2.40
2019-06-10T16:38:22.387Z,2.30
2019-06-10T16:40:53.362Z,2.87
2019-06-10T16:43:22.720Z,2.10
2019-06-10T16:45:49.604Z,2.30
2019-06-10T16:48:17.420Z,1.87
2019-06-10T16:50:47.163Z,2.27
2019-06-10T16:53:17.784Z,2.87
2019-06-10T16:55:44.884Z,1.80
2019-06-10T16:58:15.676Z,2.47
2019-06-10T17:00:43.441Z,1.83
2019-06-10T17:03:12.811Z,2.40
2019-06-10T17:05:42.610Z,4.83
2019-06-10T17:08:12.658Z,2.03
2019-06-10T17:10:40.269Z,1.83
2019-06-10T17:13:09.524Z,2.23
2019-06-10T17:15:37.406Z,2.07
2019-06-10T17:18:05.200Z,2.13
2019-06-10T17:20:34.156Z,2.10
2019-06-10T17:23:26.427Z,2.40
2019-06-10T17:25:55.199Z,2.03
2019-06-10T17:28:29.001Z,2.00
2019-06-10T17:30:55.966Z,2.23
2019-06-10T17:33:25.826Z,2.90
2019-06-10T17:35:53.406Z,2.03
2019-06-10T17:38:22.545Z,2.40
2019-06-10T17:40:52.140Z,2.53
2019-06-10T17:43:20.959Z,1.90
2019-06-10T17:45:48.861Z,2.70
2019-06-10T17:48:16.679Z,2.07
2019-06-10T17:50:45.257Z,2.47
2019-06-10T17:53:12.986Z,3.57
2019-06-10T17:55:41.017Z,2.87
2019-06-10T17:58:08.776Z,2.50
2019-06-10T18:00:36.735Z,2.80
2019-06-10T18:03:05.281Z,2.83
2019-06-10T18:05:33.535Z,2.93
2019-06-10T18:08:02.324Z,3.27
2019-06-10T18:10:34.471Z,2.90
2019-06-10T18:13:13.031Z,4.10
2019-06-10T18:15:35.357Z,3.13
2019-06-10T18:18:03.596Z,5.30
2019-06-10T18:20:36.972Z,2.80
2019-06-10T18:23:04.811Z,2.73
2019-06-10T18:25:33.949Z,4.40
2019-06-10T18:28:04.488Z,2.97
2019-06-10T18:30:35.663Z,2.87
2019-06-10T18:33:03.031Z,3.77
2019-06-10T18:35:34.323Z,2.70
2019-06-10T18:38:02.334Z,3.20
2019-06-10T18:40:31.522Z,3.23
2019-06-10T18:42:59.383Z,3.10
2019-06-10T18:45:27.625Z,3.30
2019-06-10T18:47:55.497Z,3.47
2019-06-10T18:50:26.073Z,3.53
2019-06-10T18:52:56.839Z,3.77
2019-06-10T18:55:23.886Z,5.77
2019-06-10T18:57:53.015Z,4.90
2019-06-10T19:00:22.902Z,5.00
2019-06-10T19:03:08.207Z,4.70
2019-06-10T19:05:22.925Z,4.10
2019-06-10T19:07:52.886Z,4.60
2019-06-10T19:10:23.046Z,5.17
2019-06-10T19:12:53.101Z,3.80
2019-06-10T19:15:20.872Z,4.20
2019-06-10T19:17:48.807Z,4.53
2019-06-10T19:20:17.342Z,4.43
2019-06-10T19:22:45.046Z,3.77
2019-06-10T19:25:13.077Z,3.87
2019-06-10T19:27:44.300Z,4.23
2019-06-10T19:30:12.536Z,3.53
2019-06-10T19:32:44.115Z,4.53
2019-06-10T19:35:13.070Z,3.53
2019-06-10T19:37:42.391Z,4.43
2019-06-10T19:40:12.389Z,3.87
2019-06-10T19:42:40.398Z,4.03
2019-06-10T19:45:08.557Z,5.50
2019-06-10T19:47:37.586Z,5.13
2019-06-10T19:50:06.680Z,5.20
2019-06-10T19:52:35.253Z,5.70
2019-06-10T19:55:07.031Z,4.43
2019-06-10T19:57:35.865Z,5.10
2019-06-10T20:00:11.702Z,5.70
2019-06-10T20:02:37.617Z,5.27
2019-06-10T20:05:08.053Z,4.70
2019-06-10T20:07:35.894Z,4.50
2019-06-10T20:10:05.024Z,6.00
2019-06-10T20:12:34.193Z,6.70
2019-06-10T20:15:02.454Z,5.70
2019-06-10T20:17:32.691Z,4.57
2019-06-10T20:20:02.554Z,5.63
2019-06-10T20:22:32.075Z,5.10
2019-06-10T20:24:59.857Z,6.00
2019-06-10T20:27:27.747Z,5.17
2019-06-10T20:30:07.060Z,5.10
2019-06-10T20:32:25.281Z,5.60
2019-06-10T20:34:58.235Z,4.70
2019-06-10T20:37:26.086Z,5.97
2019-06-10T20:39:54.025Z,5.30
2019-06-10T20:42:23.091Z,7.00
2019-06-10T20:44:51.224Z,4.80
2019-06-10T20:47:18.934Z,5.50
2019-06-10T20:49:51.420Z,5.27
2019-06-10T20:52:16.587Z,6.27
2019-06-10T20:54:46.437Z,5.23
2019-06-10T20:57:14.379Z,5.43
2019-06-10T20:59:43.777Z,6.80
2019-06-10T21:02:13.568Z,6.57
2019-06-10T21:04:43.685Z,5.97
2019-06-10T21:07:13.300Z,6.70
2019-06-10T21:09:46.938Z,6.80
2019-06-10T21:12:14.089Z,6.17
2019-06-10T21:15:02.395Z,5.70
2019-06-10T21:17:30.343Z,6.77
2019-06-10T21:19:58.092Z,6.43
2019-06-10T21:22:27.265Z,5.47
2019-06-10T21:24:55.156Z,6.73
2019-06-10T21:27:23.984Z,6.47
2019-06-10T21:29:54.782Z,5.90
2019-06-10T21:32:21.733Z,5.90
2019-06-10T21:34:52.524Z,6.13
2019-06-10T21:37:19.514Z,6.57
2019-06-10T21:39:48.052Z,8.57
2019-06-10T21:42:16.998Z,6.73
2019-06-10T21:44:45.849Z,6.87
2019-06-10T21:47:13.630Z,9.90
2019-06-10T21:49:42.717Z,7.90
2019-06-10T21:52:12.951Z,8.33
2019-06-10T21:54:42.587Z,10.57
2019-06-10T21:57:10.776Z,9.27
2019-06-10T21:59:38.480Z,8.13
2019-06-10T22:02:06.288Z,8.47
2019-06-10T22:04:34.495Z,8.40
2019-06-10T22:07:03.139Z,9.97
2019-06-10T22:09:31.121Z,6.70
2019-06-10T22:11:58.925Z,8.57
2019-06-10T22:14:30.112Z,9.57
2019-06-10T22:16:57.861Z,9.67
2019-06-10T22:19:25.911Z,9.33
2019-06-10T22:21:55.236Z,10.87
2019-06-10T22:24:23.218Z,10.97
2019-06-10T22:26:51.159Z,8.80
2019-06-10T22:29:18.845Z,9.30
2019-06-10T22:31:47.171Z,10.50
2019-06-10T22:34:15.131Z,9.80
2019-06-10T22:36:42.973Z,10.17
2019-06-10T22:39:12.468Z,8.80
2019-06-10T22:41:42.486Z,9.57
2019-06-10T22:44:12.537Z,9.97
2019-06-10T22:46:42.385Z,9.30
2019-06-10T22:49:09.812Z,11.13
2019-06-10T22:51:37.735Z,9.93
2019-06-10T22:54:05.634Z,8.13
2019-06-10T22:56:33.517Z,9.30
2019-06-10T22:59:03.371Z,9.77
2019-06-10T23:01:37.706Z,9.10
2019-06-10T23:04:03.544Z,8.90
2019-06-10T23:06:30.314Z,9.83
2019-06-10T23:08:59.372Z,8.20
2019-06-10T23:11:27.494Z,8.87
2019-06-10T23:13:56.537Z,8.97
2019-06-10T23:16:24.796Z,8.30
2019-06-10T23:18:56.769Z,9.27
2019-06-10T23:21:23.986Z,9.03
2019-06-10T23:23:53.800Z,8.97
2019-06-10T23:26:22.613Z,8.37
2019-06-10T23:28:52.769Z,7.60
2019-06-10T23:31:20.074Z,8.60
2019-06-10T23:33:47.914Z,8.03
2019-06-10T23:36:15.709Z,8.60
2019-06-10T23:38:43.387Z,8.23
2019-06-10T23:41:13.006Z,9.57
2019-06-10T23:43:42.300Z,7.97
2019-06-10T23:46:12.132Z,8.73
2019-06-10T23:48:42.275Z,7.00
2019-06-10T23:51:11.981Z,9.10
2019-06-10T23:53:39.322Z,9.17
2019-06-10T23:56:07.393Z,9.30
2019-06-10T23:58:35.291Z,9.63
